Pacific Peacock — 9V7610 — position and weather

sailwx.info

Track history (hours):
 
Tides and Currents Weather Stations Pressure Air Temp Water Temp Dewpoint Dewpoint Depression Visibility Wind Speed Wind Dir Waves Ship Positions

Pacific Peacock

Last reported at 2017-Oct-19 17:58 UTC. Time now 2017-Nov-19 01:14 UTC.
Position N 04°35' W 003°07'.
Warning: this ship's position is 30 days out of date.

Length 58 m; draft 4.5 m.

Type: Other ship. MMSI: 563274000.

Date/timePositionNaut miles runAvg speedWind from/ knotsBaromVisibWave heightAir tempDewpointWater temp
2017-Oct-19 17:58N 04°35' W 003°07'1 1.3
2017-Oct-19 17:30N 04°36' W 003°07'0 0.6
2017-Oct-19 17:00N 04°36' W 003°07'1 1.8
2017-Oct-19 16:29N 04°35' W 003°08'2 5.1
2017-Oct-19 16:00N 04°32' W 003°08'2 3.3
2017-Oct-19 15:30N 04°34' W 003°09'  
2017-Oct-16 06:09N 04°34' W 002°55'0 1.2
2017-Oct-16 05:59N 04°34' W 002°55'1 1.1
2017-Oct-16 05:30N 04°35' W 002°55'1 1.0
2017-Oct-16 04:59N 04°35' W 002°55'1 1.1
2017-Oct-16 04:29N 04°36' W 002°55'1 1.1
2017-Oct-16 04:00N 04°37' W 002°55'1 1.0
2017-Oct-16 03:29N 04°37' W 002°55'1 1.5
2017-Oct-16 03:00N 04°36' W 002°54'1 2.1
2017-Oct-16 02:29N 04°35' W 002°54'1 2.1
2017-Oct-16 02:00N 04°34' W 002°54'1 1.0
2017-Oct-16 01:30N 04°34' W 002°54'1 1.5
2017-Oct-16 00:58N 04°35' W 002°54'1 1.5
2017-Oct-16 00:29N 04°35' W 002°54'1 1.5
2017-Oct-16 00:00N 04°36' W 002°54'1 1.5
2017-Oct-15 23:30N 04°37' W 002°55'1 2.4
2017-Oct-15 23:00N 04°36' W 002°54'1 2.5
2017-Oct-15 22:28N 04°34' W 002°55'1 2.5
2017-Oct-15 21:58N 04°33' W 002°55'3 2.2
2017-Oct-15 20:32N 04°30' W 002°55'0 0.6
2017-Oct-15 20:30N 04°30' W 002°55'0 0.5
2017-Oct-15 19:59N 04°30' W 002°55'0 0.3
2017-Oct-15 19:23N 04°30' W 002°55'0 0.1
2017-Oct-15 19:01N 04°30' W 002°55'0 0.5
2017-Oct-15 18:30N 04°30' W 002°56'2 4.0
2017-Oct-15 18:00N 04°32' W 002°55'5 2.5
2017-Oct-15 16:09N 04°36' W 002°55'1 3.7
2017-Oct-15 15:58N 04°36' W 002°56'2 3.8
2017-Oct-15 15:29N 04°34' W 002°56'2 1.5
2017-Oct-15 14:00N 04°32' W 002°54'2 2.1
2017-Oct-15 13:14N 04°34' W 002°54'1 2.2
2017-Oct-15 12:52N 04°35' W 002°53'1 1.1
2017-Oct-15 12:07N 04°35' W 002°53'0 0.5
2017-Oct-15 12:00N 04°35' W 002°53'0 0.1
2017-Oct-15 11:30N 04°35' W 002°53'0 0.0
2017-Oct-15 10:59N 04°35' W 002°53'0 0.1
2017-Oct-15 07:59N 04°36' W 002°53'1 1.7
2017-Oct-15 07:28N 04°37' W 002°53'0 0.0
2017-Oct-15 07:00N 04°37' W 002°53'1 2.4
2017-Oct-15 06:29N 04°36' W 002°54'3 1.4
2017-Oct-15 04:05N 04°33' W 002°54'0 0.5
2017-Oct-15 03:53N 04°33' W 002°54'1 0.7
2017-Oct-15 03:08N 04°32' W 002°54'0 0.3
2017-Oct-15 02:59N 04°32' W 002°54'0 0.4
2017-Oct-15 02:30N 04°32' W 002°54'0 0.5
2017-Oct-15 02:00N 04°32' W 002°54'0 0.8
2017-Oct-15 01:30N 04°32' W 002°53'1 1.2
2017-Oct-15 01:00N 04°31' W 002°53'2 3.4
2017-Oct-15 00:29N 04°33' W 002°54'3 5.2
2017-Oct-14 23:59N 04°35' W 002°56'1 1.5
2017-Oct-14 23:30N 04°35' W 002°56'2 1.1
2017-Oct-14 21:53N 04°37' W 002°55'1 2.2
2017-Oct-14 21:29N 04°36' W 002°55'1 2.3
2017-Oct-14 20:59N 04°35' W 002°55'1 2.4
2017-Oct-14 20:24N 04°33' W 002°56'1 0.2
2017-Oct-14 12:15N 04°35' W 002°55'0 0.3
2017-Oct-14 10:43N 04°35' W 002°55'1 1.6
2017-Oct-14 10:20N 04°36' W 002°55'1 1.7
2017-Oct-14 10:00N 04°36' W 002°55'1 1.4
2017-Oct-14 09:27N 04°37' W 002°54'1 2.1
2017-Oct-14 09:00N 04°36' W 002°54'1 2.2
2017-Oct-14 08:29N 04°35' W 002°54'1 2.2
2017-Oct-14 08:00N 04°34' W 002°55'1 2.2
2017-Oct-14 07:29N 04°33' W 002°55'1 1.6
2017-Oct-14 07:00N 04°33' W 002°54'1 1.6
2017-Oct-14 06:30N 04°34' W 002°54'1 1.6
2017-Oct-14 05:59N 04°35' W 002°54'1 1.7
2017-Oct-14 05:29N 04°36' W 002°55'1 1.7
2017-Oct-14 04:59N 04°37' W 002°55'0 0.7
2017-Oct-14 04:31N 04°37' W 002°55'1 1.9
2017-Oct-14 03:59N 04°36' W 002°55'0 0.5
2017-Oct-14 03:29N 04°36' W 002°55'1 1.0
2017-Oct-14 02:59N 04°36' W 002°55'1 1.0
2017-Oct-14 02:28N 04°37' W 002°55'0 0.6
2017-Oct-14 01:51N 04°37' W 002°55'0 0.2
2017-Oct-14 01:30N 04°37' W 002°55'1 2.2
2017-Oct-14 00:58N 04°36' W 002°55'1 2.3
2017-Oct-14 00:30N 04°35' W 002°55'1 2.2
2017-Oct-14 00:00N 04°34' W 002°55'0 0.2
2017-Oct-13 23:30N 04°34' W 002°55'1 1.0
2017-Oct-13 22:58N 04°34' W 002°55'0 0.9
2017-Oct-13 22:29N 04°35' W 002°55'1 0.9
2017-Oct-13 21:15N 04°36' W 002°55'1 0.8
2017-Oct-13 20:00N 04°37' W 002°54'1 2.0
2017-Oct-13 19:29N 04°36' W 002°54'4 3.2
2017-Oct-13 18:13N 04°33' W 002°52'0 1.4
2017-Oct-13 17:59N 04°33' W 002°52'1 1.4
2017-Oct-13 17:26N 04°34' W 002°52'1 1.3
2017-Oct-13 17:00N 04°34' W 002°52'1 1.3
2017-Oct-13 16:30N 04°35' W 002°52'1 1.4
2017-Oct-13 15:59N 04°36' W 002°52'0 0.2
2017-Oct-13 15:29N 04°36' W 002°52'1 2.1
2017-Oct-13 15:00N 04°35' W 002°52'1 2.2
2017-Oct-13 14:30N 04°34' W 002°53'1 1.7
2017-Oct-13 13:58N 04°33' W 002°53'1 1.1
2017-Oct-13 13:30N 04°34' W 002°53'0 0.8
2017-Oct-13 13:00N 04°34' W 002°53'1 1.1
2017-Oct-13 12:30N 04°35' W 002°53'1 1.5
2017-Oct-13 11:59N 04°35' W 002°53'0 0.2
2017-Oct-13 11:30N 04°35' W 002°53'0 0.0
2017-Oct-13 10:50N 04°35' W 002°53'0 0.0
2017-Oct-13 10:30N 04°35' W 002°53'0 0.0
2017-Oct-13 09:59N 04°35' W 002°53'2 0.8
2017-Oct-13 07:05N 04°37' W 002°55'0 1.2
2017-Oct-13 06:43N 04°36' W 002°55'0 1.4
2017-Oct-13 06:29N 04°36' W 002°55'1 1.4
2017-Oct-13 06:00N 04°35' W 002°55'1 1.3
2017-Oct-13 05:30N 04°35' W 002°55'1 1.7
2017-Oct-13 04:59N 04°34' W 002°54'0 0.4
2017-Oct-13 04:27N 04°34' W 002°54'1 1.3
2017-Oct-13 04:00N 04°35' W 002°55'1 1.1
2017-Oct-13 03:29N 04°35' W 002°55'1 1.3
2017-Oct-13 02:52N 04°36' W 002°55'1 1.1
2017-Oct-13 01:58N 04°37' W 002°55'1 2.0
2017-Oct-13 01:30N 04°36' W 002°55'1 2.1
2017-Oct-13 01:00N 04°35' W 002°56'1 2.1
2017-Oct-13 00:28N 04°34' W 002°56'1 2.1
2017-Oct-13 00:00N 04°33' W 002°56'1 1.4
2017-Oct-12 23:31N 04°34' W 002°56'1 1.7
2017-Oct-12 22:43N 04°35' W 002°55'2 1.5
2017-Oct-12 21:37N 04°37' W 002°55'1 2.2
2017-Oct-12 21:21N 04°36' W 002°55'1 2.2
2017-Oct-12 20:58N 04°35' W 002°55'1 2.1
2017-Oct-12 20:30N 04°34' W 002°55'1 2.1
2017-Oct-12 19:59N 04°33' W 002°54'1 1.7
2017-Oct-12 19:29N 04°34' W 002°54'1 1.5
2017-Oct-12 18:59N 04°34' W 002°53'1 1.6
2017-Oct-12 18:29N 04°35' W 002°53'1 1.2
2017-Oct-12 17:59N 04°36' W 002°53'0 0.0
2017-Oct-12 17:30N 04°36' W 002°53'0 0.4
2017-Oct-12 16:59N 04°35' W 002°53'0 0.1
2017-Oct-12 16:30N 04°35' W 002°53'0 0.0
2017-Oct-12 15:59N 04°35' W 002°53'0 0.0
2017-Oct-12 15:29N 04°35' W 002°53'0 0.0
2017-Oct-12 15:00N 04°35' W 002°53'0 0.0
2017-Oct-12 14:28N 04°35' W 002°53'0 0.0
2017-Oct-12 14:00N 04°35' W 002°53'0 0.0
2017-Oct-12 13:29N 04°35' W 002°53'0 0.0
2017-Oct-12 12:59N 04°35' W 002°53'0 0.0
2017-Oct-12 12:30N 04°35' W 002°53'0 0.1
2017-Oct-12 11:55N 04°35' W 002°53'0 0.3
2017-Oct-12 11:29N 04°36' W 002°53'0 0.3
2017-Oct-12 10:59N 04°36' W 002°53'0 0.0
2017-Oct-12 10:29N 04°36' W 002°53'1 1.1
2017-Oct-12 09:59N 04°36' W 002°52'2 4.8
2017-Oct-12 09:30N 04°34' W 002°52'0 0.8
2017-Oct-12 08:59N 04°34' W 002°52'1 1.4
2017-Oct-12 08:29N 04°35' W 002°52'1 1.3
2017-Oct-12 07:59N 04°35' W 002°51'0 0.6
2017-Oct-12 07:29N 04°36' W 002°51'0 0.4
2017-Oct-12 07:00N 04°36' W 002°51'1 1.4
2017-Oct-12 06:29N 04°35' W 002°51'1 2.0
2017-Oct-12 05:59N 04°34' W 002°51'1 1.6
2017-Oct-12 05:29N 04°33' W 002°51'1 1.2
2017-Oct-12 05:00N 04°34' W 002°51'1 1.1
2017-Oct-12 04:30N 04°34' W 002°51'1 1.1
2017-Oct-12 03:59N 04°35' W 002°51'0 0.8
2017-Oct-12 03:29N 04°35' W 002°51'1 1.1
2017-Oct-12 03:00N 04°36' W 002°51'0 0.3
2017-Oct-12 02:30N 04°36' W 002°51'1 2.0
2017-Oct-12 02:00N 04°35' W 002°51'1 2.0
2017-Oct-12 01:30N 04°34' W 002°52'1 1.0
2017-Oct-12 00:59N 04°34' W 002°52'0 1.0
2017-Oct-12 00:30N 04°35' W 002°51'1 1.1
2017-Oct-11 23:59N 04°36' W 002°51'0 0.9
2017-Oct-11 23:29N 04°35' W 002°52'1 2.6
2017-Oct-11 23:00N 04°34' W 002°52'1 2.6
2017-Oct-11 22:30N 04°33' W 002°52'0 0.1
2017-Oct-11 21:59N 04°33' W 002°52'0 1.0
2017-Oct-11 21:30N 04°33' W 002°52'0 0.9
2017-Oct-11 21:00N 04°34' W 002°52'0 0.8
2017-Oct-11 20:30N 04°34' W 002°52'0 0.8
2017-Oct-11 20:00N 04°34' W 002°52'0 0.8
2017-Oct-11 19:30N 04°35' W 002°52'0 0.7
2017-Oct-11 19:00N 04°35' W 002°52'0 0.8
2017-Oct-11 18:30N 04°35' W 002°52'0 0.8
2017-Oct-11 17:59N 04°36' W 002°52'0 0.3
2017-Oct-11 17:29N 04°36' W 002°52'1 2.2
2017-Oct-11 16:59N 04°35' W 002°52'2 0.1
2017-Oct-11 00:00N 04°33' W 002°52'1 2.0
2017-Oct-10 23:29N 04°32' W 002°53'1 1.6
2017-Oct-10 23:00N 04°33' W 002°52'1 1.8
2017-Oct-10 22:29N 04°34' W 002°52'1 1.7
2017-Oct-10 22:00N 04°35' W 002°52'1 1.8
2017-Oct-10 21:29N 04°36' W 002°51'0 0.1
2017-Oct-10 21:00N 04°36' W 002°51'1 2.3
2017-Oct-10 20:30N 04°35' W 002°52'1 2.1
2017-Oct-10 20:00N 04°34' W 002°52'1 1.8
2017-Oct-10 19:29N 04°33' W 002°53'0 0.3
2017-Oct-10 19:00N 04°33' W 002°53'1 1.6
2017-Oct-10 18:30N 04°33' W 002°53'1 1.5
2017-Oct-10 17:59N 04°34' W 002°53'1 1.6
2017-Oct-10 17:30N 04°35' W 002°52'1 1.5
2017-Oct-10 17:00N 04°36' W 002°52'1 1.2
2017-Oct-10 16:29N 04°36' W 002°52'1 1.0
2017-Oct-10 15:59N 04°37' W 002°52'0 0.2
2017-Oct-10 15:29N 04°37' W 002°52'1 2.0
2017-Oct-10 14:59N 04°36' W 002°53'2 1.7
2017-Oct-10 13:59N 04°34' W 002°53'0 0.4
2017-Oct-10 13:27N 04°34' W 002°53'2 2.6
2017-Oct-10 12:33N 04°37' W 002°52'0 2.7
2017-Oct-10 12:31N 04°37' W 002°52'2 2.8
2017-Oct-10 11:39N 04°39' W 002°51'1 4.0
2017-Oct-10 11:24N 04°38' W 002°52'2 4.0
2017-Oct-10 10:59N 04°36' W 002°52'2 3.9
2017-Oct-10 10:28N 04°35' W 002°53'1 2.9
2017-Oct-10 09:59N 04°34' W 002°54'1 1.7
2017-Oct-10 09:29N 04°33' W 002°54'1 1.9
2017-Oct-10 09:00N 04°32' W 002°55'1 2.8
2017-Oct-10 08:30N 04°33' W 002°54'2 2.7
2017-Oct-10 07:41N 04°35' W 002°53'1 2.5
2017-Oct-10 07:21N 04°36' W 002°53'1 2.4
2017-Oct-10 06:59N 04°37' W 002°52'2 3.2
2017-Oct-10 06:29N 04°35' W 002°53'3 5.0
2017-Oct-10 05:54N 04°33' W 002°51'3 6.0
2017-Oct-10 05:26N 04°34' W 002°48'3 6.4
2017-Oct-10 04:59N 04°34' W 002°45'4 8.3
2017-Oct-10 04:30N 04°35' W 002°41'5 9.7
2017-Oct-10 03:59N 04°35' W 002°36'5 9.5
2017-Oct-10 03:31N 04°35' W 002°32'5 9.4
2017-Oct-10 03:00N 04°35' W 002°27'5 9.4
2017-Oct-10 02:30N 04°35' W 002°22'5 9.2
2017-Oct-10 01:59N 04°35' W 002°17'4 8.8
2017-Oct-10 01:31N 04°35' W 002°13'4 8.8
2017-Oct-10 01:00N 04°35' W 002°09'4 8.8
2017-Oct-10 00:30N 04°36' W 002°04'16 8.9
2017-Oct-09 22:40N 04°41' W 001°49'2 9.0
2017-Oct-09 22:29N 04°42' W 001°47'4 8.3
2017-Oct-09 21:59N 04°45' W 001°44'7 8.7
2017-Oct-09 21:12N 04°51' W 001°41'2 8.3
2017-Oct-09 21:00N 04°53' W 001°41'  
Track history (hours):
 
Tides and Currents Weather Stations Pressure Air Temp Water Temp Dewpoint Dewpoint Depression Visibility Wind Speed Wind Dir Waves Ship Positions

Pacific Peacock

Last reported at 2017-Oct-19 17:58 UTC. Time now 2017-Nov-19 01:14 UTC.
Position N 04°35' W 003°07'.
Warning: this ship's position is 30 days out of date.

Length 58 m; draft 4.5 m.

Type: Other ship. MMSI: 563274000.

Date/timePositionNaut miles runAvg speedWind from/ knotsBaromVisibWave heightAir tempDewpointWater temp
2017-Oct-19 17:58N 04°35' W 003°07'1 1.3
2017-Oct-19 17:30N 04°36' W 003°07'0 0.6
2017-Oct-19 17:00N 04°36' W 003°07'1 1.8
2017-Oct-19 16:29N 04°35' W 003°08'2 5.1
2017-Oct-19 16:00N 04°32' W 003°08'2 3.3
2017-Oct-19 15:30N 04°34' W 003°09'  
2017-Oct-16 06:09N 04°34' W 002°55'0 1.2
2017-Oct-16 05:59N 04°34' W 002°55'1 1.1
2017-Oct-16 05:30N 04°35' W 002°55'1 1.0
2017-Oct-16 04:59N 04°35' W 002°55'1 1.1
2017-Oct-16 04:29N 04°36' W 002°55'1 1.1
2017-Oct-16 04:00N 04°37' W 002°55'1 1.0
2017-Oct-16 03:29N 04°37' W 002°55'1 1.5
2017-Oct-16 03:00N 04°36' W 002°54'1 2.1
2017-Oct-16 02:29N 04°35' W 002°54'1 2.1
2017-Oct-16 02:00N 04°34' W 002°54'1 1.0
2017-Oct-16 01:30N 04°34' W 002°54'1 1.5
2017-Oct-16 00:58N 04°35' W 002°54'1 1.5
2017-Oct-16 00:29N 04°35' W 002°54'1 1.5
2017-Oct-16 00:00N 04°36' W 002°54'1 1.5
2017-Oct-15 23:30N 04°37' W 002°55'1 2.4
2017-Oct-15 23:00N 04°36' W 002°54'1 2.5
2017-Oct-15 22:28N 04°34' W 002°55'1 2.5
2017-Oct-15 21:58N 04°33' W 002°55'3 2.2
2017-Oct-15 20:32N 04°30' W 002°55'0 0.6
2017-Oct-15 20:30N 04°30' W 002°55'0 0.5
2017-Oct-15 19:59N 04°30' W 002°55'0 0.3
2017-Oct-15 19:23N 04°30' W 002°55'0 0.1
2017-Oct-15 19:01N 04°30' W 002°55'0 0.5
2017-Oct-15 18:30N 04°30' W 002°56'2 4.0
2017-Oct-15 18:00N 04°32' W 002°55'5 2.5
2017-Oct-15 16:09N 04°36' W 002°55'1 3.7
2017-Oct-15 15:58N 04°36' W 002°56'2 3.8
2017-Oct-15 15:29N 04°34' W 002°56'2 1.5
2017-Oct-15 14:00N 04°32' W 002°54'2 2.1
2017-Oct-15 13:14N 04°34' W 002°54'1 2.2
2017-Oct-15 12:52N 04°35' W 002°53'1 1.1
2017-Oct-15 12:07N 04°35' W 002°53'0 0.5
2017-Oct-15 12:00N 04°35' W 002°53'0 0.1
2017-Oct-15 11:30N 04°35' W 002°53'0 0.0
2017-Oct-15 10:59N 04°35' W 002°53'0 0.1
2017-Oct-15 07:59N 04°36' W 002°53'1 1.7
2017-Oct-15 07:28N 04°37' W 002°53'0 0.0
2017-Oct-15 07:00N 04°37' W 002°53'1 2.4
2017-Oct-15 06:29N 04°36' W 002°54'3 1.4
2017-Oct-15 04:05N 04°33' W 002°54'0 0.5
2017-Oct-15 03:53N 04°33' W 002°54'1 0.7
2017-Oct-15 03:08N 04°32' W 002°54'0 0.3
2017-Oct-15 02:59N 04°32' W 002°54'0 0.4
2017-Oct-15 02:30N 04°32' W 002°54'0 0.5
2017-Oct-15 02:00N 04°32' W 002°54'0 0.8
2017-Oct-15 01:30N 04°32' W 002°53'1 1.2
2017-Oct-15 01:00N 04°31' W 002°53'2 3.4
2017-Oct-15 00:29N 04°33' W 002°54'3 5.2
2017-Oct-14 23:59N 04°35' W 002°56'1 1.5
2017-Oct-14 23:30N 04°35' W 002°56'2 1.1
2017-Oct-14 21:53N 04°37' W 002°55'1 2.2
2017-Oct-14 21:29N 04°36' W 002°55'1 2.3
2017-Oct-14 20:59N 04°35' W 002°55'1 2.4
2017-Oct-14 20:24N 04°33' W 002°56'1 0.2
2017-Oct-14 12:15N 04°35' W 002°55'0 0.3
2017-Oct-14 10:43N 04°35' W 002°55'1 1.6
2017-Oct-14 10:20N 04°36' W 002°55'1 1.7
2017-Oct-14 10:00N 04°36' W 002°55'1 1.4
2017-Oct-14 09:27N 04°37' W 002°54'1 2.1
2017-Oct-14 09:00N 04°36' W 002°54'1 2.2
2017-Oct-14 08:29N 04°35' W 002°54'1 2.2
2017-Oct-14 08:00N 04°34' W 002°55'1 2.2
2017-Oct-14 07:29N 04°33' W 002°55'1 1.6
2017-Oct-14 07:00N 04°33' W 002°54'1 1.6
2017-Oct-14 06:30N 04°34' W 002°54'1 1.6
2017-Oct-14 05:59N 04°35' W 002°54'1 1.7
2017-Oct-14 05:29N 04°36' W 002°55'1 1.7
2017-Oct-14 04:59N 04°37' W 002°55'0 0.7
2017-Oct-14 04:31N 04°37' W 002°55'1 1.9
2017-Oct-14 03:59N 04°36' W 002°55'0 0.5
2017-Oct-14 03:29N 04°36' W 002°55'1 1.0
2017-Oct-14 02:59N 04°36' W 002°55'1 1.0
2017-Oct-14 02:28N 04°37' W 002°55'0 0.6
2017-Oct-14 01:51N 04°37' W 002°55'0 0.2
2017-Oct-14 01:30N 04°37' W 002°55'1 2.2
2017-Oct-14 00:58N 04°36' W 002°55'1 2.3
2017-Oct-14 00:30N 04°35' W 002°55'1 2.2
2017-Oct-14 00:00N 04°34' W 002°55'0 0.2
2017-Oct-13 23:30N 04°34' W 002°55'1 1.0
2017-Oct-13 22:58N 04°34' W 002°55'0 0.9
2017-Oct-13 22:29N 04°35' W 002°55'1 0.9
2017-Oct-13 21:15N 04°36' W 002°55'1 0.8
2017-Oct-13 20:00N 04°37' W 002°54'1 2.0
2017-Oct-13 19:29N 04°36' W 002°54'4 3.2
2017-Oct-13 18:13N 04°33' W 002°52'0 1.4
2017-Oct-13 17:59N 04°33' W 002°52'1 1.4
2017-Oct-13 17:26N 04°34' W 002°52'1 1.3
2017-Oct-13 17:00N 04°34' W 002°52'1 1.3
2017-Oct-13 16:30N 04°35' W 002°52'1 1.4
2017-Oct-13 15:59N 04°36' W 002°52'0 0.2
2017-Oct-13 15:29N 04°36' W 002°52'1 2.1
2017-Oct-13 15:00N 04°35' W 002°52'1 2.2
2017-Oct-13 14:30N 04°34' W 002°53'1 1.7
2017-Oct-13 13:58N 04°33' W 002°53'1 1.1
2017-Oct-13 13:30N 04°34' W 002°53'0 0.8
2017-Oct-13 13:00N 04°34' W 002°53'1 1.1
2017-Oct-13 12:30N 04°35' W 002°53'1 1.5
2017-Oct-13 11:59N 04°35' W 002°53'0 0.2
2017-Oct-13 11:30N 04°35' W 002°53'0 0.0
2017-Oct-13 10:50N 04°35' W 002°53'0 0.0
2017-Oct-13 10:30N 04°35' W 002°53'0 0.0
2017-Oct-13 09:59N 04°35' W 002°53'2 0.8
2017-Oct-13 07:05N 04°37' W 002°55'0 1.2
2017-Oct-13 06:43N 04°36' W 002°55'0 1.4
2017-Oct-13 06:29N 04°36' W 002°55'1 1.4
2017-Oct-13 06:00N 04°35' W 002°55'1 1.3
2017-Oct-13 05:30N 04°35' W 002°55'1 1.7
2017-Oct-13 04:59N 04°34' W 002°54'0 0.4
2017-Oct-13 04:27N 04°34' W 002°54'1 1.3
2017-Oct-13 04:00N 04°35' W 002°55'1 1.1
2017-Oct-13 03:29N 04°35' W 002°55'1 1.3
2017-Oct-13 02:52N 04°36' W 002°55'1 1.1
2017-Oct-13 01:58N 04°37' W 002°55'1 2.0
2017-Oct-13 01:30N 04°36' W 002°55'1 2.1
2017-Oct-13 01:00N 04°35' W 002°56'1 2.1
2017-Oct-13 00:28N 04°34' W 002°56'1 2.1
2017-Oct-13 00:00N 04°33' W 002°56'1 1.4
2017-Oct-12 23:31N 04°34' W 002°56'1 1.7
2017-Oct-12 22:43N 04°35' W 002°55'2 1.5
2017-Oct-12 21:37N 04°37' W 002°55'1 2.2
2017-Oct-12 21:21N 04°36' W 002°55'1 2.2
2017-Oct-12 20:58N 04°35' W 002°55'1 2.1
2017-Oct-12 20:30N 04°34' W 002°55'1 2.1
2017-Oct-12 19:59N 04°33' W 002°54'1 1.7
2017-Oct-12 19:29N 04°34' W 002°54'1 1.5
2017-Oct-12 18:59N 04°34' W 002°53'1 1.6
2017-Oct-12 18:29N 04°35' W 002°53'1 1.2
2017-Oct-12 17:59N 04°36' W 002°53'0 0.0
2017-Oct-12 17:30N 04°36' W 002°53'0 0.4
2017-Oct-12 16:59N 04°35' W 002°53'0 0.1
2017-Oct-12 16:30N 04°35' W 002°53'0 0.0
2017-Oct-12 15:59N 04°35' W 002°53'0 0.0
2017-Oct-12 15:29N 04°35' W 002°53'0 0.0
2017-Oct-12 15:00N 04°35' W 002°53'0 0.0
2017-Oct-12 14:28N 04°35' W 002°53'0 0.0
2017-Oct-12 14:00N 04°35' W 002°53'0 0.0
2017-Oct-12 13:29N 04°35' W 002°53'0 0.0
2017-Oct-12 12:59N 04°35' W 002°53'0 0.0
2017-Oct-12 12:30N 04°35' W 002°53'0 0.1
2017-Oct-12 11:55N 04°35' W 002°53'0 0.3
2017-Oct-12 11:29N 04°36' W 002°53'0 0.3
2017-Oct-12 10:59N 04°36' W 002°53'0 0.0
2017-Oct-12 10:29N 04°36' W 002°53'1 1.1
2017-Oct-12 09:59N 04°36' W 002°52'2 4.8
2017-Oct-12 09:30N 04°34' W 002°52'0 0.8
2017-Oct-12 08:59N 04°34' W 002°52'1 1.4
2017-Oct-12 08:29N 04°35' W 002°52'1 1.3
2017-Oct-12 07:59N 04°35' W 002°51'0 0.6
2017-Oct-12 07:29N 04°36' W 002°51'0 0.4
2017-Oct-12 07:00N 04°36' W 002°51'1 1.4
2017-Oct-12 06:29N 04°35' W 002°51'1 2.0
2017-Oct-12 05:59N 04°34' W 002°51'1 1.6
2017-Oct-12 05:29N 04°33' W 002°51'1 1.2
2017-Oct-12 05:00N 04°34' W 002°51'1 1.1
2017-Oct-12 04:30N 04°34' W 002°51'1 1.1
2017-Oct-12 03:59N 04°35' W 002°51'0 0.8
2017-Oct-12 03:29N 04°35' W 002°51'1 1.1
2017-Oct-12 03:00N 04°36' W 002°51'0 0.3
2017-Oct-12 02:30N 04°36' W 002°51'1 2.0
2017-Oct-12 02:00N 04°35' W 002°51'1 2.0
2017-Oct-12 01:30N 04°34' W 002°52'1 1.0
2017-Oct-12 00:59N 04°34' W 002°52'0 1.0
2017-Oct-12 00:30N 04°35' W 002°51'1 1.1
2017-Oct-11 23:59N 04°36' W 002°51'0 0.9
2017-Oct-11 23:29N 04°35' W 002°52'1 2.6
2017-Oct-11 23:00N 04°34' W 002°52'1 2.6
2017-Oct-11 22:30N 04°33' W 002°52'0 0.1
2017-Oct-11 21:59N 04°33' W 002°52'0 1.0
2017-Oct-11 21:30N 04°33' W 002°52'0 0.9
2017-Oct-11 21:00N 04°34' W 002°52'0 0.8
2017-Oct-11 20:30N 04°34' W 002°52'0 0.8
2017-Oct-11 20:00N 04°34' W 002°52'0 0.8
2017-Oct-11 19:30N 04°35' W 002°52'0 0.7
2017-Oct-11 19:00N 04°35' W 002°52'0 0.8
2017-Oct-11 18:30N 04°35' W 002°52'0 0.8
2017-Oct-11 17:59N 04°36' W 002°52'0 0.3
2017-Oct-11 17:29N 04°36' W 002°52'1 2.2
2017-Oct-11 16:59N 04°35' W 002°52'2 0.1
2017-Oct-11 00:00N 04°33' W 002°52'1 2.0
2017-Oct-10 23:29N 04°32' W 002°53'1 1.6
2017-Oct-10 23:00N 04°33' W 002°52'1 1.8
2017-Oct-10 22:29N 04°34' W 002°52'1 1.7
2017-Oct-10 22:00N 04°35' W 002°52'1 1.8
2017-Oct-10 21:29N 04°36' W 002°51'0 0.1
2017-Oct-10 21:00N 04°36' W 002°51'1 2.3
2017-Oct-10 20:30N 04°35' W 002°52'1 2.1
2017-Oct-10 20:00N 04°34' W 002°52'1 1.8
2017-Oct-10 19:29N 04°33' W 002°53'0 0.3
2017-Oct-10 19:00N 04°33' W 002°53'1 1.6
2017-Oct-10 18:30N 04°33' W 002°53'1 1.5
2017-Oct-10 17:59N 04°34' W 002°53'1 1.6
2017-Oct-10 17:30N 04°35' W 002°52'1 1.5
2017-Oct-10 17:00N 04°36' W 002°52'1 1.2
2017-Oct-10 16:29N 04°36' W 002°52'1 1.0
2017-Oct-10 15:59N 04°37' W 002°52'0 0.2
2017-Oct-10 15:29N 04°37' W 002°52'1 2.0
2017-Oct-10 14:59N 04°36' W 002°53'2 1.7
2017-Oct-10 13:59N 04°34' W 002°53'0 0.4
2017-Oct-10 13:27N 04°34' W 002°53'2 2.6
2017-Oct-10 12:33N 04°37' W 002°52'0 2.7
2017-Oct-10 12:31N 04°37' W 002°52'2 2.8
2017-Oct-10 11:39N 04°39' W 002°51'1 4.0
2017-Oct-10 11:24N 04°38' W 002°52'2 4.0
2017-Oct-10 10:59N 04°36' W 002°52'2 3.9
2017-Oct-10 10:28N 04°35' W 002°53'1 2.9
2017-Oct-10 09:59N 04°34' W 002°54'1 1.7
2017-Oct-10 09:29N 04°33' W 002°54'1 1.9
2017-Oct-10 09:00N 04°32' W 002°55'1 2.8
2017-Oct-10 08:30N 04°33' W 002°54'2 2.7
2017-Oct-10 07:41N 04°35' W 002°53'1 2.5
2017-Oct-10 07:21N 04°36' W 002°53'1 2.4
2017-Oct-10 06:59N 04°37' W 002°52'2 3.2
2017-Oct-10 06:29N 04°35' W 002°53'3 5.0
2017-Oct-10 05:54N 04°33' W 002°51'3 6.0
2017-Oct-10 05:26N 04°34' W 002°48'3 6.4
2017-Oct-10 04:59N 04°34' W 002°45'4 8.3
2017-Oct-10 04:30N 04°35' W 002°41'5 9.7
2017-Oct-10 03:59N 04°35' W 002°36'5 9.5
2017-Oct-10 03:31N 04°35' W 002°32'5 9.4
2017-Oct-10 03:00N 04°35' W 002°27'5 9.4
2017-Oct-10 02:30N 04°35' W 002°22'5 9.2
2017-Oct-10 01:59N 04°35' W 002°17'4 8.8
2017-Oct-10 01:31N 04°35' W 002°13'4 8.8
2017-Oct-10 01:00N 04°35' W 002°09'4 8.8
2017-Oct-10 00:30N 04°36' W 002°04'16 8.9
2017-Oct-09 22:40N 04°41' W 001°49'2 9.0
2017-Oct-09 22:29N 04°42' W 001°47'4 8.3
2017-Oct-09 21:59N 04°45' W 001°44'7 8.7
2017-Oct-09 21:12N 04°51' W 001°41'2 8.3
2017-Oct-09 21:00N 04°53' W 001°41'  

Dump ship's entire track history